Map

Track Data

SID SEASON NUMBER BASIN SUBBASIN NAME ISO_TIME NATURE LAT LON WMO_WIND WMO_PRES WMO_AGENCY TRACK_TYPE DIST2LAND LANDFALL IFLAG USA_AGENCY USA_ATCF_ID USA_LAT USA_LON USA_RECORD USA_STATUS USA_WIND USA_PRES USA_SSHS USA_R34_NE USA_R34_SE USA_R34_SW USA_R34_NW USA_R50_NE USA_R50_SE USA_R50_SW USA_R50_NW USA_R64_NE USA_R64_SE USA_R64_SW USA_R64_NW USA_POCI USA_ROCI USA_RMW USA_EYE TOKYO_LAT TOKYO_LON TOKYO_GRADE TOKYO_WIND TOKYO_PRES TOKYO_R50_DIR TOKYO_R50_LONG TOKYO_R50_SHORT TOKYO_R30_DIR TOKYO_R30_LONG TOKYO_R30_SHORT TOKYO_LAND CMA_LAT CMA_LON CMA_CAT CMA_WIND CMA_PRES HKO_LAT HKO_LON HKO_CAT HKO_WIND HKO_PRES NEWDELHI_LAT NEWDELHI_LON NEWDELHI_GRADE NEWDELHI_WIND NEWDELHI_PRES NEWDELHI_CI NEWDELHI_DP NEWDELHI_POCI REUNION_LAT REUNION_LON REUNION_TYPE REUNION_WIND REUNION_PRES REUNION_TNUM REUNION_CI REUNION_RMW REUNION_R34_NE REUNION_R34_SE REUNION_R34_SW REUNION_R34_NW REUNION_R50_NE REUNION_R50_SE REUNION_R50_SW REUNION_R50_NW REUNION_R64_NE REUNION_R64_SE REUNION_R64_SW REUNION_R64_NW BOM_LAT BOM_LON BOM_TYPE BOM_WIND BOM_PRES BOM_TNUM BOM_CI BOM_RMW BOM_R34_NE BOM_R34_SE BOM_R34_SW BOM_R34_NW BOM_R50_NE BOM_R50_SE BOM_R50_SW BOM_R50_NW BOM_R64_NE BOM_R64_SE BOM_R64_SW BOM_R64_NW BOM_ROCI BOM_POCI BOM_EYE BOM_POS_METHOD BOM_PRES_METHOD NADI_LAT NADI_LON NADI_CAT NADI_WIND NADI_PRES WELLINGTON_LAT WELLINGTON_LON WELLINGTON_WIND WELLINGTON_PRES DS824_LAT DS824_LON DS824_STAGE DS824_WIND DS824_PRES TD9636_LAT TD9636_LON TD9636_STAGE TD9636_WIND TD9636_PRES TD9635_LAT TD9635_LON TD9635_WIND TD9635_PRES TD9635_ROCI NEUMANN_LAT NEUMANN_LON NEUMANN_CLASS NEUMANN_WIND NEUMANN_PRES MLC_LAT MLC_LON MLC_CLASS MLC_WIND MLC_PRES USA_GUST BOM_GUST BOM_GUST_PER REUNION_GUST REUNION_GUST_PER USA_SEAHGT USA_SEARAD_NE USA_SEARAD_SE USA_SEARAD_SW USA_SEARAD_NW STORM_SPEED STORM_DIR
1921096N10084 1921 22 NI BB NOT_NAMED 1921-04-06 00:00:00 TS 9.80000 83.9000 main 316 312 _________O____ -1 9.80000 83.9000 TC 34 3 323
1921096N10084 1921 22 NI BB NOT_NAMED 1921-04-06 03:00:00 TS 9.92668 83.8000 main 312 309 _________PO___ -1 9.99001 83.7500 TC 36 9.80000 83.9000 2 4 324
1921096N10084 1921 22 NI BB NOT_NAMED 1921-04-06 06:00:00 TS 10.1281 83.6588 main 316 309 _________OP___ -1 10.2000 83.6000 TC 39 10.0204 83.7470 2 5 327
1921096N10084 1921 22 NI BB NOT_NAMED 1921-04-06 09:00:00 TS 10.3568 83.5122 main 316 314 _________PP___ -1 10.4425 83.4500 TC 42 10.2426 83.5951 2 5 328
1921096N10084 1921 22 NI BB NOT_NAMED 1921-04-06 12:00:00 TS 10.5842 83.3728 main 320 310 _________OP___ -1 10.7000 83.3000 TC 45 10.4685 83.4457 2 6 329
1921096N10084 1921 22 NI BB NOT_NAMED 1921-04-06 15:00:00 TS 10.8250 83.2213 main 312 309 _________PO___ -1 10.9500 83.1425 TC 45 10.7000 83.3000 3 6 329
1921096N10084 1921 22 NI BB NOT_NAMED 1921-04-06 18:00:00 TS 11.0694 83.0798 main 322 314 _________OP___ -1 11.2000 83.0000 TC 45 10.9387 83.1597 3 6 332
1921096N10084 1921 22 NI BB NOT_NAMED 1921-04-06 21:00:00 TS 11.3175 82.9600 main 328 310 _________PP___ -1 11.4500 82.8925 TC 45 11.1850 83.0275 3 6 336
1921096N10084 1921 22 NI BB NOT_NAMED 1921-04-07 00:00:00 TS 11.5694 82.8533 main 310 293 _________OP___ -1 11.7000 82.8000 TC 45 11.4387 82.9065 3 5 337
1921096N10084 1921 22 NI BB NOT_NAMED 1921-04-07 03:00:00 TS 11.8213 82.7462 main 283 275 _________PO___ -1 11.9425 82.6925 TC 45 11.7000 82.8000 3 6 339
1921096N10084 1921 22 NI BB NOT_NAMED 1921-04-07 06:00:00 TS 12.0839 82.6532 main 275 260 _________OP___ -1 12.2000 82.6000 TC 45 11.9678 82.7065 3 6 344
1921096N10084 1921 22 NI BB NOT_NAMED 1921-04-07 09:00:00 TS 12.3712 82.5849 main 260 249 _________PP___ -1 12.5000 82.5425 TC 45 12.2425 82.6274 3 6 349
1921096N10084 1921 22 NI BB NOT_NAMED 1921-04-07 12:00:00 TS 12.6605 82.5298 main 247 242 _________OP___ -1 12.8000 82.5000 TC 45 12.5209 82.5596 3 6 349
1921096N10084 1921 22 NI BB NOT_NAMED 1921-04-07 15:00:00 TS 12.9250 82.4750 main 242 227 _________PO___ -1 13.0500 82.4500 TC 45 12.8000 82.5000 3 6 348
1921096N10084 1921 22 NI BB NOT_NAMED 1921-04-07 18:00:00 TS 13.1956 82.4173 main 227 227 _________OP___ -1 13.3000 82.4000 TC 45 13.0912 82.4347 3 6 349
1921096N10084 1921 22 NI BB NOT_NAMED 1921-04-07 21:00:00 TS 13.4937 82.3600 main 227 216 _________PP___ -1 13.6075 82.3425 TC 45 13.3800 82.3775 3 6 350
1921096N10084 1921 22 NI BB NOT_NAMED 1921-04-08 00:00:00 TS 13.7769 82.3158 main 216 216 _________OP___ -1 13.9000 82.3000 TC 45 13.6537 82.3316 3 5 354
1921096N10084 1921 22 NI BB NOT_NAMED 1921-04-08 03:00:00 TS 14.0112 82.2962 main 217 217 _________PO___ -1 14.1225 82.2925 TC 45 13.9000 82.3000 3 4 0
1921096N10084 1921 22 NI BB NOT_NAMED 1921-04-08 06:00:00 TS 14.2039 82.2887 main 220 209 _________OP___ -1 14.3000 82.3000 TC 45 14.1078 82.2775 3 4 0
1921096N10084 1921 22 NI BB NOT_NAMED 1921-04-08 09:00:00 TS 14.3725 82.2812 main 209 201 _________PP___ -1 14.4575 82.2925 TC 45 14.2875 82.2700 3 3 5
1921096N10084 1921 22 NI BB NOT_NAMED 1921-04-08 12:00:00 TS 14.5242 82.2887 main 201 186 _________OP___ -1 14.6000 82.3000 TC 45 14.4484 82.2775 3 3 5
1921096N10084 1921 22 NI BB NOT_NAMED 1921-04-08 15:00:00 TS 14.6750 82.3212 main 186 178 _________PO___ -1 14.7500 82.3425 TC 45 14.6000 82.3000 3 3 14
1921096N10084 1921 22 NI BB NOT_NAMED 1921-04-08 18:00:00 TS 14.8143 82.3639 main 183 163 _________OP___ -1 14.9000 82.4000 TC 45 14.7500 82.3368 3 3 17
1921096N10084 1921 22 NI BB NOT_NAMED 1921-04-08 21:00:00 TS 14.9600 82.4120 main 163 153 _________PP___ -1 15.0500 82.4525 TC 45 14.9000 82.3849 3 3 19
1921096N10084 1921 22 NI BB NOT_NAMED 1921-04-09 00:00:00 TS 15.1000 82.4604 main 159 148 _________OP___ -1 15.2000 82.5000 TC 45 15.0500 82.4406 3 3 21
1921096N10084 1921 22 NI BB NOT_NAMED 1921-04-09 03:00:00 NR 15.2000 82.5000 main 148 __________O___ -1 TC 15.2000 82.5000 3 2 17

About IBTrACS Database

This database is a web-friendly format of International Best Track Archive for Climate Stewardship (IBTrACS), a global best track data archive curated by NOAA dating back to 1842.

Updated: 2021-10-19